sensor_id;sensor_type;location;lat;lon;timestamp;pressure;altitude;pressure_sealevel;temperature;humidity
58843;BME280;44614;54.356;10.100;2024-02-21T00:00:42;101336.34;;;7.26;100.00
58843;BME280;44614;54.356;10.100;2024-02-21T00:03:07;101329.00;;;7.26;100.00
58843;BME280;44614;54.356;10.100;2024-02-21T00:05:33;101321.66;;;7.27;100.00
58843;BME280;44614;54.356;10.100;2024-02-21T00:07:59;101323.34;;;7.28;100.00
58843;BME280;44614;54.356;10.100;2024-02-21T00:10:24;101320.44;;;7.29;100.00
58843;BME280;44614;54.356;10.100;2024-02-21T00:12:50;101309.31;;;7.31;100.00
58843;BME280;44614;54.356;10.100;2024-02-21T00:15:16;101307.25;;;7.33;100.00
58843;BME280;44614;54.356;10.100;2024-02-21T00:17:42;101300.72;;;7.34;100.00
58843;BME280;44614;54.356;10.100;2024-02-21T00:20:07;101300.34;;;7.37;100.00
58843;BME280;44614;54.356;10.100;2024-02-21T00:22:33;101297.22;;;7.40;100.00
58843;BME280;44614;54.356;10.100;2024-02-21T00:24:58;101289.91;;;7.41;100.00
58843;BME280;44614;54.356;10.100;2024-02-21T00:27:24;101271.22;;;7.44;100.00
58843;BME280;44614;54.356;10.100;2024-02-21T00:29:49;101281.13;;;7.45;100.00
58843;BME280;44614;54.356;10.100;2024-02-21T00:32:15;101274.59;;;7.46;100.00
58843;BME280;44614;54.356;10.100;2024-02-21T00:34:40;101272.72;;;7.47;100.00
58843;BME280;44614;54.356;10.100;2024-02-21T00:37:06;101279.03;;;7.47;100.00
58843;BME280;44614;54.356;10.100;2024-02-21T00:39:31;101262.63;;;7.47;100.00
58843;BME280;44614;54.356;10.100;2024-02-21T00:41:56;101263.66;;;7.46;100.00
58843;BME280;44614;54.356;10.100;2024-02-21T00:44:22;101264.50;;;7.47;100.00
58843;BME280;44614;54.356;10.100;2024-02-21T00:46:47;101250.84;;;7.47;100.00
58843;BME280;44614;54.356;10.100;2024-02-21T00:49:12;101250.69;;;7.48;100.00
58843;BME280;44614;54.356;10.100;2024-02-21T00:51:38;101245.22;;;7.48;100.00
58843;BME280;44614;54.356;10.100;2024-02-21T00:54:03;101241.44;;;7.49;100.00
58843;BME280;44614;54.356;10.100;2024-02-21T00:56:28;101232.19;;;7.50;100.00
58843;BME280;44614;54.356;10.100;2024-02-21T00:58:55;101233.88;;;7.51;100.00
58843;BME280;44614;54.356;10.100;2024-02-21T01:01:21;101228.41;;;7.51;100.00
58843;BME280;44614;54.356;10.100;2024-02-21T01:03:47;101230.97;;;7.53;100.00
58843;BME280;44614;54.356;10.100;2024-02-21T01:06:12;101222.94;;;7.51;100.00
58843;BME280;44614;54.356;10.100;2024-02-21T01:08:38;101226.53;;;7.52;100.00
58843;BME280;44614;54.356;10.100;2024-02-21T01:11:03;101213.72;;;7.52;100.00
58843;BME280;44614;54.356;10.100;2024-02-21T01:13:28;101211.00;;;7.52;100.00
58843;BME280;44614;54.356;10.100;2024-02-21T01:15:53;101208.03;;;7.54;100.00
58843;BME280;44614;54.356;10.100;2024-02-21T01:18:19;101202.59;;;7.54;100.00
58843;BME280;44614;54.356;10.100;2024-02-21T01:20:44;101211.63;;;7.54;100.00
58843;BME280;44614;54.356;10.100;2024-02-21T01:23:10;101205.31;;;7.54;100.00
58843;BME280;44614;54.356;10.100;2024-02-21T01:25:35;101190.81;;;7.53;100.00
58843;BME280;44614;54.356;10.100;2024-02-21T01:28:00;101176.31;;;7.53;100.00
58843;BME280;44614;54.356;10.100;2024-02-21T01:30:26;101178.19;;;7.52;100.00
58843;BME280;44614;54.356;10.100;2024-02-21T01:32:51;101171.69;;;7.53;100.00
58843;BME280;44614;54.356;10.100;2024-02-21T01:35:16;101163.47;;;7.53;100.00
58843;BME280;44614;54.356;10.100;2024-02-21T01:37:42;101164.31;;;7.54;100.00
58843;BME280;44614;54.356;10.100;2024-02-21T01:40:07;101157.16;;;7.53;100.00
58843;BME280;44614;54.356;10.100;2024-02-21T01:42:33;101159.91;;;7.53;100.00
58843;BME280;44614;54.356;10.100;2024-02-21T01:44:58;101132.56;;;7.53;100.00
58843;BME280;44614;54.356;10.100;2024-02-21T01:47:23;101089.91;;;7.52;100.00
58843;BME280;44614;54.356;10.100;2024-02-21T01:49:49;101100.16;;;7.50;100.00
58843;BME280;44614;54.356;10.100;2024-02-21T01:52:14;101119.09;;;7.51;100.00
58843;BME280;44614;54.356;10.100;2024-02-21T01:54:41;101107.31;;;7.51;100.00
58843;BME280;44614;54.356;10.100;2024-02-21T01:57:07;101107.31;;;7.51;100.00
58843;BME280;44614;54.356;10.100;2024-02-21T01:59:32;101109.19;;;7.50;100.00
58843;BME280;44614;54.356;10.100;2024-02-21T02:01:58;101112.59;;;7.52;100.00
58843;BME280;44614;54.356;10.100;2024-02-21T02:04:23;101090.91;;;7.51;100.00
58843;BME280;44614;54.356;10.100;2024-02-21T02:06:50;101096.38;;;7.51;100.00
58843;BME280;44614;54.356;10.100;2024-02-21T02:09:15;101095.38;;;7.52;100.00
58843;BME280;44614;54.356;10.100;2024-02-21T02:11:41;101093.47;;;7.52;100.00
58843;BME280;44614;54.356;10.100;2024-02-21T02:14:07;101094.31;;;7.53;100.00
58843;BME280;44614;54.356;10.100;2024-02-21T02:16:32;101088.84;;;7.53;100.00
58843;BME280;44614;54.356;10.100;2024-02-21T02:18:57;101072.25;;;7.54;100.00
58843;BME280;44614;54.356;10.100;2024-02-21T02:21:26;101080.44;;;7.54;100.00
58843;BME280;44614;54.356;10.100;2024-02-21T02:23:52;101084.00;;;7.55;100.00
58843;BME280;44614;54.356;10.100;2024-02-21T02:26:18;101078.53;;;7.55;100.00
58843;BME280;44614;54.356;10.100;2024-02-21T02:28:43;101072.91;;;7.56;100.00
58843;BME280;44614;54.356;10.100;2024-02-21T02:31:08;101072.06;;;7.56;100.00
58843;BME280;44614;54.356;10.100;2024-02-21T02:33:34;101072.06;;;7.56;100.00
58843;BME280;44614;54.356;10.100;2024-02-21T02:35:59;101063.03;;;7.55;100.00
58843;BME280;44614;54.356;10.100;2024-02-21T02:38:24;101065.53;;;7.57;100.00
58843;BME280;44614;54.356;10.100;2024-02-21T02:40:50;101055.66;;;7.56;100.00
58843;BME280;44614;54.356;10.100;2024-02-21T02:43:15;101056.50;;;7.56;100.00
58843;BME280;44614;54.356;10.100;2024-02-21T02:45:40;101055.44;;;7.57;100.00
58843;BME280;44614;54.356;10.100;2024-02-21T02:48:06;101057.34;;;7.57;100.00
58843;BME280;44614;54.356;10.100;2024-02-21T02:50:31;101053.78;;;7.56;100.00
58843;BME280;44614;54.356;10.100;2024-02-21T02:52:57;101051.88;;;7.57;100.00
58843;BME280;44614;54.356;10.100;2024-02-21T02:55:22;101062.81;;;7.57;100.00
58843;BME280;44614;54.356;10.100;2024-02-21T02:57:47;101051.22;;;7.55;100.00
58843;BME280;44614;54.356;10.100;2024-02-21T03:00:13;101043.88;;;7.55;100.00
58843;BME280;44614;54.356;10.100;2024-02-21T03:02:40;101059.25;;;7.56;100.00
58843;BME280;44614;54.356;10.100;2024-02-21T03:05:12;101052.94;;;7.56;100.00
58843;BME280;44614;54.356;10.100;2024-02-21T03:07:38;101061.13;;;7.56;100.00
58843;BME280;44614;54.356;10.100;2024-02-21T03:10:04;101057.72;;;7.54;100.00
58843;BME280;44614;54.356;10.100;2024-02-21T03:12:29;101061.53;;;7.53;100.00
58843;BME280;44614;54.356;10.100;2024-02-21T03:14:54;101072.44;;;7.53;100.00
58843;BME280;44614;54.356;10.100;2024-02-21T03:17:20;101064.25;;;7.53;100.00
58843;BME280;44614;54.356;10.100;2024-02-21T03:19:46;101063.41;;;7.52;100.00
58843;BME280;44614;54.356;10.100;2024-02-21T03:22:11;101050.97;;;7.50;100.00
58843;BME280;44614;54.356;10.100;2024-02-21T03:24:36;101060.22;;;7.49;100.00
58843;BME280;44614;54.356;10.100;2024-02-21T03:27:02;101060.22;;;7.49;100.00
58843;BME280;44614;54.356;10.100;2024-02-21T03:29:27;101059.38;;;7.48;100.00
58843;BME280;44614;54.356;10.100;2024-02-21T03:31:53;101058.94;;;7.45;100.00
58843;BME280;44614;54.356;10.100;2024-02-21T03:34:18;101061.00;;;7.43;100.00
58843;BME280;44614;54.356;10.100;2024-02-21T03:36:43;101062.22;;;7.40;100.00
58843;BME280;44614;54.356;10.100;2024-02-21T03:39:08;101054.03;;;7.40;100.00
58843;BME280;44614;54.356;10.100;2024-02-21T03:41:34;101058.88;;;7.38;100.00
58843;BME280;44614;54.356;10.100;2024-02-21T03:43:59;101068.13;;;7.37;100.00
58843;BME280;44614;54.356;10.100;2024-02-21T03:46:25;101073.97;;;7.34;100.00
58843;BME280;44614;54.356;10.100;2024-02-21T03:48:50;101068.88;;;7.31;100.00
58843;BME280;44614;54.356;10.100;2024-02-21T03:51:16;101094.69;;;7.28;100.00
58843;BME280;44614;54.356;10.100;2024-02-21T03:53:41;101086.25;;;7.23;100.00
58843;BME280;44614;54.356;10.100;2024-02-21T03:56:06;101081.78;;;7.16;100.00
58843;BME280;44614;54.356;10.100;2024-02-21T03:58:32;101082.16;;;7.13;100.00
58843;BME280;44614;54.356;10.100;2024-02-21T04:00:59;101089.72;;;7.11;100.00
58843;BME280;44614;54.356;10.100;2024-02-21T04:03:25;101067.03;;;7.10;100.00
58843;BME280;44614;54.356;10.100;2024-02-21T04:05:50;101066.34;;;7.08;100.00
58843;BME280;44614;54.356;10.100;2024-02-21T04:08:15;101074.75;;;7.06;100.00
58843;BME280;44614;54.356;10.100;2024-02-21T04:10:41;101080.59;;;7.03;100.00
58843;BME280;44614;54.356;10.100;2024-02-21T04:13:06;101085.41;;;7.01;100.00
58843;BME280;44614;54.356;10.100;2024-02-21T04:15:32;101091.91;;;7.00;100.00
58843;BME280;44614;54.356;10.100;2024-02-21T04:17:57;101091.28;;;6.98;100.00
58843;BME280;44614;54.356;10.100;2024-02-21T04:20:22;101090.59;;;6.96;100.00
58843;BME280;44614;54.356;10.100;2024-02-21T04:22:48;101101.53;;;6.96;100.00
58843;BME280;44614;54.356;10.100;2024-02-21T04:25:13;101094.38;;;6.95;100.00
58843;BME280;44614;54.356;10.100;2024-02-21T04:27:39;101102.56;;;6.95;100.00
58843;BME280;44614;54.356;10.100;2024-02-21T04:30:04;101096.28;;;6.95;100.00
58843;BME280;44614;54.356;10.100;2024-02-21T04:32:30;101106.53;;;6.93;100.00
58843;BME280;44614;54.356;10.100;2024-02-21T04:34:55;101100.22;;;6.92;100.00
58843;BME280;44614;54.356;10.100;2024-02-21T04:37:21;101103.31;;;6.89;100.00
58843;BME280;44614;54.356;10.100;2024-02-21T04:39:46;101095.34;;;6.88;100.00
58843;BME280;44614;54.356;10.100;2024-02-21T04:42:11;101106.25;;;6.88;100.00
58843;BME280;44614;54.356;10.100;2024-02-21T04:44:37;101096.34;;;6.87;100.00
58843;BME280;44614;54.356;10.100;2024-02-21T04:47:03;101093.63;;;6.87;100.00
58843;BME280;44614;54.356;10.100;2024-02-21T04:49:28;101093.84;;;6.85;100.00
58843;BME280;44614;54.356;10.100;2024-02-21T04:51:54;101096.56;;;6.85;100.00
58843;BME280;44614;54.356;10.100;2024-02-21T04:54:19;101088.59;;;6.83;100.00
58843;BME280;44614;54.356;10.100;2024-02-21T04:56:44;101100.34;;;6.84;100.00
58843;BME280;44614;54.356;10.100;2024-02-21T04:59:10;101093.38;;;6.81;100.00
58843;BME280;44614;54.356;10.100;2024-02-21T05:01:35;101092.53;;;6.81;100.00
58843;BME280;44614;54.356;10.100;2024-02-21T05:04:00;101088.13;;;6.80;100.00
58843;BME280;44614;54.356;10.100;2024-02-21T05:06:26;101083.88;;;6.77;100.00
58843;BME280;44614;54.356;10.100;2024-02-21T05:08:51;101091.84;;;6.79;100.00
58843;BME280;44614;54.356;10.100;2024-02-21T05:11:16;101078.22;;;6.79;100.00
58843;BME280;44614;54.356;10.100;2024-02-21T05:13:42;101077.38;;;6.78;100.00
58843;BME280;44614;54.356;10.100;2024-02-21T05:16:08;101071.28;;;6.76;100.00
58843;BME280;44614;54.356;10.100;2024-02-21T05:18:33;101066.19;;;6.73;100.00
58843;BME280;44614;54.356;10.100;2024-02-21T05:20:59;101074.59;;;6.72;100.00
58843;BME280;44614;54.356;10.100;2024-02-21T05:23:24;101079.00;;;6.73;100.00
58843;BME280;44614;54.356;10.100;2024-02-21T05:25:50;101085.50;;;6.72;100.00
58843;BME280;44614;54.356;10.100;2024-02-21T05:28:15;101084.47;;;6.73;100.00
58843;BME280;44614;54.356;10.100;2024-02-21T05:30:41;101085.69;;;6.70;100.00
58843;BME280;44614;54.356;10.100;2024-02-21T05:33:08;101083.78;;;6.71;100.00
58843;BME280;44614;54.356;10.100;2024-02-21T05:35:33;101080.22;;;6.70;100.00
58843;BME280;44614;54.356;10.100;2024-02-21T05:37:59;101082.94;;;6.70;100.00
58843;BME280;44614;54.356;10.100;2024-02-21T05:40:24;101075.59;;;6.71;100.00
58843;BME280;44614;54.356;10.100;2024-02-21T05:42:50;101067.41;;;6.71;100.00
58843;BME280;44614;54.356;10.100;2024-02-21T05:45:17;101076.66;;;6.70;100.00
58843;BME280;44614;54.356;10.100;2024-02-21T05:47:42;101071.19;;;6.70;100.00
58843;BME280;44614;54.356;10.100;2024-02-21T05:50:08;101072.88;;;6.71;100.00
58843;BME280;44614;54.356;10.100;2024-02-21T05:52:33;101067.41;;;6.71;100.00
58843;BME280;44614;54.356;10.100;2024-02-21T05:54:59;101074.97;;;6.69;100.00
58843;BME280;44614;54.356;10.100;2024-02-21T05:57:24;101080.44;;;6.69;100.00
58843;BME280;44614;54.356;10.100;2024-02-21T05:59:49;101078.72;;;6.68;100.00
58843;BME280;44614;54.356;10.100;2024-02-21T06:02:15;101077.88;;;6.67;100.00
58843;BME280;44614;54.356;10.100;2024-02-21T06:04:40;101084.16;;;6.68;100.00
58843;BME280;44614;54.356;10.100;2024-02-21T06:07:07;101092.56;;;6.66;100.00
58843;BME280;44614;54.356;10.100;2024-02-21T06:09:33;101086.63;;;6.63;100.00
58843;BME280;44614;54.356;10.100;2024-02-21T06:11:58;101089.56;;;6.61;100.00
58843;BME280;44614;54.356;10.100;2024-02-21T06:14:24;101092.00;;;6.56;100.00
58843;BME280;44614;54.356;10.100;2024-02-21T06:16:49;101097.00;;;6.52;100.00
58843;BME280;44614;54.356;10.100;2024-02-21T06:19:14;101104.75;;;6.49;100.00
58843;BME280;44614;54.356;10.100;2024-02-21T06:21:40;101106.81;;;6.47;100.00
58843;BME280;44614;54.356;10.100;2024-02-21T06:24:05;101107.84;;;6.46;100.00
58843;BME280;44614;54.356;10.100;2024-02-21T06:26:30;101106.34;;;6.43;100.00
58843;BME280;44614;54.356;10.100;2024-02-21T06:28:56;101116.59;;;6.41;100.00
58843;BME280;44614;54.356;10.100;2024-02-21T06:31:21;101116.13;;;6.38;100.00
58843;BME280;44614;54.356;10.100;2024-02-21T06:33:46;101108.31;;;6.34;100.00
58843;BME280;44614;54.356;10.100;2024-02-21T06:36:11;101100.50;;;6.31;100.00
58843;BME280;44614;54.356;10.100;2024-02-21T06:38:37;101090.19;;;6.27;100.00
58843;BME280;44614;54.356;10.100;2024-02-21T06:41:02;101104.19;;;6.24;100.00
58843;BME280;44614;54.356;10.100;2024-02-21T06:43:28;101097.03;;;6.23;100.00
58843;BME280;44614;54.356;10.100;2024-02-21T06:45:53;101101.81;;;6.21;100.00
58843;BME280;44614;54.356;10.100;2024-02-21T06:48:20;101096.38;;;6.21;100.00
58843;BME280;44614;54.356;10.100;2024-02-21T06:50:45;101097.88;;;6.23;100.00
58843;BME280;44614;54.356;10.100;2024-02-21T06:53:11;101110.31;;;6.26;100.00
58843;BME280;44614;54.356;10.100;2024-02-21T06:55:36;101100.88;;;6.28;100.00
58843;BME280;44614;54.356;10.100;2024-02-21T06:58:01;101097.09;;;6.29;100.00
58843;BME280;44614;54.356;10.100;2024-02-21T07:00:30;101094.59;;;6.28;100.00
58843;BME280;44614;54.356;10.100;2024-02-21T07:02:55;101097.31;;;6.28;100.00
58843;BME280;44614;54.356;10.100;2024-02-21T07:05:20;101097.50;;;6.26;100.00
58843;BME280;44614;54.356;10.100;2024-02-21T07:07:46;101089.34;;;6.26;100.00
58843;BME280;44614;54.356;10.100;2024-02-21T07:10:11;101088.50;;;6.26;100.00
58843;BME280;44614;54.356;10.100;2024-02-21T07:12:37;101087.81;;;6.24;100.00
58843;BME280;44614;54.356;10.100;2024-02-21T07:15:07;101100.41;;;6.25;100.00
58843;BME280;44614;54.356;10.100;2024-02-21T07:17:32;101096.84;;;6.24;100.00
58843;BME280;44614;54.356;10.100;2024-02-21T07:19:57;101093.28;;;6.24;100.00
58843;BME280;44614;54.356;10.100;2024-02-21T07:22:24;101080.69;;;6.23;100.00
58843;BME280;44614;54.356;10.100;2024-02-21T07:24:49;101078.59;;;6.25;100.00
58843;BME280;44614;54.356;10.100;2024-02-21T07:27:15;101075.69;;;6.26;100.00
58843;BME280;44614;54.356;10.100;2024-02-21T07:29:40;101089.50;;;6.25;100.00
58843;BME280;44614;54.356;10.100;2024-02-21T07:32:05;101086.13;;;6.23;100.00
58843;BME280;44614;54.356;10.100;2024-02-21T07:34:31;101099.28;;;6.19;100.00
58843;BME280;44614;54.356;10.100;2024-02-21T07:36:56;101113.78;;;6.20;100.00
58843;BME280;44614;54.356;10.100;2024-02-21T07:39:22;101111.63;;;6.15;100.00
58843;BME280;44614;54.356;10.100;2024-02-21T07:41:47;101113.09;;;6.18;100.00
58843;BME280;44614;54.356;10.100;2024-02-21T07:44:14;101124.69;;;6.20;100.00
58843;BME280;44614;54.356;10.100;2024-02-21T07:46:39;101120.06;;;6.20;100.00
58843;BME280;44614;54.356;10.100;2024-02-21T07:49:05;101131.19;;;6.19;100.00
58843;BME280;44614;54.356;10.100;2024-02-21T07:51:30;101119.44;;;6.18;100.00
58843;BME280;44614;54.356;10.100;2024-02-21T07:53:55;101126.56;;;6.19;100.00
58843;BME280;44614;54.356;10.100;2024-02-21T07:56:21;101112.94;;;6.19;100.00
58843;BME280;44614;54.356;10.100;2024-02-21T07:58:46;101124.88;;;6.18;100.00
58843;BME280;44614;54.356;10.100;2024-02-21T08:01:11;101121.69;;;6.15;100.00
58843;BME280;44614;54.356;10.100;2024-02-21T08:03:43;101119.97;;;6.14;100.00
58843;BME280;44614;54.356;10.100;2024-02-21T08:06:11;101107.00;;;6.16;100.00
58843;BME280;44614;54.356;10.100;2024-02-21T08:08:36;101115.47;;;6.21;100.00
58843;BME280;44614;54.356;10.100;2024-02-21T08:11:02;101121.59;;;6.23;100.00
58843;BME280;44614;54.356;10.100;2024-02-21T08:13:27;101109.63;;;6.24;100.00
58843;BME280;44614;54.356;10.100;2024-02-21T08:15:53;101119.69;;;6.23;100.00
58843;BME280;44614;54.356;10.100;2024-02-21T08:18:19;101122.06;;;6.26;100.00
58843;BME280;44614;54.356;10.100;2024-02-21T08:20:45;101130.03;;;6.28;100.00
58843;BME280;44614;54.356;10.100;2024-02-21T08:23:10;101127.31;;;6.28;100.00
58843;BME280;44614;54.356;10.100;2024-02-21T08:25:35;101128.81;;;6.30;100.00
58843;BME280;44614;54.356;10.100;2024-02-21T08:28:01;101122.13;;;6.33;100.00
58843;BME280;44614;54.356;10.100;2024-02-21T08:30:26;101119.88;;;6.37;100.00
58843;BME280;44614;54.356;10.100;2024-02-21T08:32:52;101117.16;;;6.37;100.00
58843;BME280;44614;54.356;10.100;2024-02-21T08:35:19;101106.06;;;6.38;100.00
58843;BME280;44614;54.356;10.100;2024-02-21T08:37:45;101098.53;;;6.40;100.00
58843;BME280;44614;54.356;10.100;2024-02-21T08:40:13;101098.16;;;6.43;100.00
58843;BME280;44614;54.356;10.100;2024-02-21T08:42:41;101097.09;;;6.44;100.00
58843;BME280;44614;54.356;10.100;2024-02-21T08:45:07;101092.69;;;6.43;100.00
58843;BME280;44614;54.356;10.100;2024-02-21T08:47:32;101085.66;;;6.49;100.00
58843;BME280;44614;54.356;10.100;2024-02-21T08:49:58;101090.31;;;6.55;100.00
58843;BME280;44614;54.356;10.100;2024-02-21T08:52:23;101080.06;;;6.57;100.00
58843;BME280;44614;54.356;10.100;2024-02-21T08:54:48;101090.78;;;6.58;100.00
58843;BME280;44614;54.356;10.100;2024-02-21T08:57:14;101099.81;;;6.59;100.00
58843;BME280;44614;54.356;10.100;2024-02-21T08:59:39;101081.56;;;6.59;100.00
58843;BME280;44614;54.356;10.100;2024-02-21T09:02:05;101088.72;;;6.61;100.00
58843;BME280;44614;54.356;10.100;2024-02-21T09:04:32;101089.84;;;6.66;100.00
58843;BME280;44614;54.356;10.100;2024-02-21T09:06:57;101093.41;;;6.67;100.00
58843;BME280;44614;54.356;10.100;2024-02-21T09:09:23;101091.13;;;6.70;100.00
58843;BME280;44614;54.356;10.100;2024-02-21T09:11:48;101106.94;;;6.75;100.00
58843;BME280;44614;54.356;10.100;2024-02-21T09:14:13;101096.47;;;6.78;100.00
58843;BME280;44614;54.356;10.100;2024-02-21T09:16:39;101092.28;;;6.76;100.00
58843;BME280;44614;54.356;10.100;2024-02-21T09:19:04;101092.06;;;6.77;100.00
58843;BME280;44614;54.356;10.100;2024-02-21T09:21:29;101088.50;;;6.77;100.00
58843;BME280;44614;54.356;10.100;2024-02-21T09:23:55;101100.72;;;6.81;100.00
58843;BME280;44614;54.356;10.100;2024-02-21T09:26:20;101099.03;;;6.80;100.00
58843;BME280;44614;54.356;10.100;2024-02-21T09:28:46;101101.66;;;6.88;100.00
58843;BME280;44614;54.356;10.100;2024-02-21T09:31:11;101097.50;;;6.92;100.00
58843;BME280;44614;54.356;10.100;2024-02-21T09:33:36;101092.94;;;6.99;100.00
58843;BME280;44614;54.356;10.100;2024-02-21T09:36:02;101101.16;;;6.99;100.00
58843;BME280;44614;54.356;10.100;2024-02-21T09:38:28;101095.09;;;7.04;100.00
58843;BME280;44614;54.356;10.100;2024-02-21T09:40:58;101093.47;;;7.09;100.00
58843;BME280;44614;54.356;10.100;2024-02-21T09:43:24;101093.16;;;7.19;100.00
58843;BME280;44614;54.356;10.100;2024-02-21T09:45:50;101089.06;;;7.30;100.00
58843;BME280;44614;54.356;10.100;2024-02-21T09:51:04;101083.66;;;7.37;100.00
58843;BME280;44614;54.356;10.100;2024-02-21T09:53:31;101078.63;;;7.40;100.00
58843;BME280;44614;54.356;10.100;2024-02-21T09:55:57;101075.97;;;7.47;100.00
58843;BME280;44614;54.356;10.100;2024-02-21T09:58:23;101080.19;;;7.49;100.00
58843;BME280;44614;54.356;10.100;2024-02-21T10:00:52;101079.22;;;7.57;100.00
58843;BME280;44614;54.356;10.100;2024-02-21T10:03:17;101083.03;;;7.63;100.00
58843;BME280;44614;54.356;10.100;2024-02-21T10:05:46;101083.03;;;7.63;100.00
58843;BME280;44614;54.356;10.100;2024-02-21T10:08:13;101078.16;;;7.58;100.00
58843;BME280;44614;54.356;10.100;2024-02-21T10:10:42;101080.44;;;7.54;100.00
58843;BME280;44614;54.356;10.100;2024-02-21T10:13:09;101077.91;;;7.53;100.00
58843;BME280;44614;54.356;10.100;2024-02-21T10:15:34;101079.53;;;7.47;100.00
58843;BME280;44614;54.356;10.100;2024-02-21T10:18:00;101081.25;;;7.48;100.00
58843;BME280;44614;54.356;10.100;2024-02-21T10:20:26;101077.84;;;7.46;100.00
58843;BME280;44614;54.356;10.100;2024-02-21T10:23:04;101069.03;;;7.44;100.00
58843;BME280;44614;54.356;10.100;2024-02-21T10:25:33;101072.38;;;7.46;100.00
58843;BME280;44614;54.356;10.100;2024-02-21T10:27:59;101061.28;;;7.48;100.00
58843;BME280;44614;54.356;10.100;2024-02-21T10:30:24;101072.91;;;7.56;100.00
58843;BME280;44614;54.356;10.100;2024-02-21T10:32:53;101066.22;;;7.66;100.00
58843;BME280;44614;54.356;10.100;2024-02-21T10:35:31;101066.09;;;7.74;100.00
58843;BME280;44614;54.356;10.100;2024-02-21T10:37:57;101063.78;;;7.77;100.00
58843;BME280;44614;54.356;10.100;2024-02-21T10:40:27;101062.56;;;7.80;100.00
58843;BME280;44614;54.356;10.100;2024-02-21T10:43:01;101068.09;;;7.93;100.00
58843;BME280;44614;54.356;10.100;2024-02-21T10:45:30;101065.63;;;7.98;100.00
58843;BME280;44614;54.356;10.100;2024-02-21T10:48:01;101062.06;;;8.04;100.00
58843;BME280;44614;54.356;10.100;2024-02-21T10:50:27;101060.63;;;8.09;100.00
58843;BME280;44614;54.356;10.100;2024-02-21T10:55:41;101055.44;;;8.20;100.00
58843;BME280;44614;54.356;10.100;2024-02-21T10:58:09;101053.63;;;8.34;100.00
58843;BME280;44614;54.356;10.100;2024-02-21T11:00:35;101046.06;;;8.36;100.00
58843;BME280;44614;54.356;10.100;2024-02-21T11:03:02;101041.31;;;8.51;100.00
58843;BME280;44614;54.356;10.100;2024-02-21T11:05:28;101034.59;;;8.61;100.00
58843;BME280;44614;54.356;10.100;2024-02-21T11:07:54;101036.94;;;8.64;100.00
58843;BME280;44614;54.356;10.100;2024-02-21T11:10:22;101026.78;;;8.58;100.00
58843;BME280;44614;54.356;10.100;2024-02-21T11:12:48;101034.38;;;8.56;100.00
58843;BME280;44614;54.356;10.100;2024-02-21T11:15:13;101017.34;;;8.60;100.00
58843;BME280;44614;54.356;10.100;2024-02-21T11:17:39;101021.13;;;8.66;100.00
58843;BME280;44614;54.356;10.100;2024-02-21T11:20:14;101023.91;;;8.72;100.00
58843;BME280;44614;54.356;10.100;2024-02-21T11:22:43;101028.31;;;8.67;100.00
58843;BME280;44614;54.356;10.100;2024-02-21T11:25:08;101014.41;;;8.68;100.00
58843;BME280;44614;54.356;10.100;2024-02-21T11:27:37;100997.78;;;8.76;100.00
58843;BME280;44614;54.356;10.100;2024-02-21T11:30:04;101003.06;;;8.85;100.00
58843;BME280;44614;54.356;10.100;2024-02-21T11:32:30;100999.72;;;8.89;100.00
58843;BME280;44614;54.356;10.100;2024-02-21T11:34:59;100991.28;;;8.91;100.00
58843;BME280;44614;54.356;10.100;2024-02-21T11:37:27;100986.63;;;8.85;100.00
58843;BME280;44614;54.356;10.100;2024-02-21T11:39:53;100982.22;;;8.90;100.00
58843;BME280;44614;54.356;10.100;2024-02-21T11:42:18;100975.91;;;8.96;100.00
58843;BME280;44614;54.356;10.100;2024-02-21T11:44:44;100966.25;;;9.00;100.00
58843;BME280;44614;54.356;10.100;2024-02-21T11:47:09;100968.34;;;8.98;100.00
58843;BME280;44614;54.356;10.100;2024-02-21T11:49:38;100968.97;;;9.00;100.00
58843;BME280;44614;54.356;10.100;2024-02-21T11:52:07;100964.94;;;9.03;100.00
58843;BME280;44614;54.356;10.100;2024-02-21T11:54:33;100972.75;;;8.99;100.00
58843;BME280;44614;54.356;10.100;2024-02-21T11:56:59;100961.59;;;9.01;100.00
58843;BME280;44614;54.356;10.100;2024-02-21T11:59:25;100955.69;;;8.97;100.00
58843;BME280;44614;54.356;10.100;2024-02-21T12:01:50;100949.81;;;9.00;100.00
58843;BME280;44614;54.356;10.100;2024-02-21T12:04:19;100944.09;;;9.02;100.00
58843;BME280;44614;54.356;10.100;2024-02-21T12:06:45;100944.53;;;9.06;100.00
58843;BME280;44614;54.356;10.100;2024-02-21T12:09:14;100945.78;;;9.10;100.00
58843;BME280;44614;54.356;10.100;2024-02-21T12:11:40;100941.78;;;9.12;100.00
58843;BME280;44614;54.356;10.100;2024-02-21T12:14:06;100925.78;;;9.16;100.00
58843;BME280;44614;54.356;10.100;2024-02-21T12:16:32;100926.81;;;9.28;100.00
58843;BME280;44614;54.356;10.100;2024-02-21T12:18:57;100913.09;;;9.28;100.00
58843;BME280;44614;54.356;10.100;2024-02-21T12:21:26;100911.81;;;9.31;100.00
58843;BME280;44614;54.356;10.100;2024-02-21T12:23:56;100904.66;;;9.36;100.00
58843;BME280;44614;54.356;10.100;2024-02-21T12:26:22;100904.63;;;9.49;100.00
58843;BME280;44614;54.356;10.100;2024-02-21T12:28:47;100899.13;;;9.49;100.00
58843;BME280;44614;54.356;10.100;2024-02-21T12:31:13;100898.50;;;9.54;100.00
58843;BME280;44614;54.356;10.100;2024-02-21T12:33:38;100895.13;;;9.59;100.00
58843;BME280;44614;54.356;10.100;2024-02-21T12:36:04;100889.63;;;9.59;100.00
58843;BME280;44614;54.356;10.100;2024-02-21T12:38:29;100886.06;;;9.58;100.00